Time;durP1;ratioP1;P1;durP2;ratioP2;P2;SDS_P1;SDS_P2;PMS_P1;PMS_P2;Temp;Humidity;BMP_temperature;BMP_pressure;BME280_temperature;BME280_humidity;BME280_pressure;Samples;Min_cycle;Max_cycle;Signal;HPM_P1;HPM_P2
2021/09/01 00:01:29;;;;;;;;;;;20.20;60.90;;;;;;5000319;28;84179;-59
2021/09/01 00:03:54;;;;;;;;;;;20.10;60.80;;;;;;5002307;28;82217;-60
2021/09/01 00:06:20;;;;;;;;;;;20.20;60.80;;;;;;5003579;28;82091;-60
2021/09/01 00:08:49;;;;;;;;;;;20.10;60.80;;;;;;5007184;28;83362;-59
2021/09/01 00:11:14;;;;;;;;;;;20.10;60.80;;;;;;5001473;28;82689;-60
2021/09/01 00:13:41;;;;;;;;;;;20.10;60.80;;;;;;5002452;28;83304;-60
2021/09/01 00:16:06;;;;;;;;;;;20.10;60.80;;;;;;5002742;28;82126;-60
2021/09/01 00:18:32;;;;;;;;;;;20.10;60.90;;;;;;5004489;28;82120;-59
2021/09/01 00:20:57;;;;;;;;;;;20.10;60.90;;;;;;5005095;28;83189;-60
2021/09/01 00:23:23;;;;;;;;;;;20.00;60.80;;;;;;5002937;28;82222;-60
2021/09/01 00:25:48;;;;;;;;;;;20.10;60.90;;;;;;5000333;28;83174;-60
2021/09/01 00:28:14;;;;;;;;;;;20.00;60.90;;;;;;5001544;28;84638;-60
2021/09/01 00:30:39;;;;;;;;;;;20.00;60.90;;;;;;5005820;28;82116;-59
2021/09/01 00:33:05;;;;;;;;;;;20.00;60.90;;;;;;5004053;28;82919;-60
2021/09/01 00:35:31;;;;;;;;;;;19.90;60.80;;;;;;5004877;28;82230;-60
2021/09/01 00:37:56;;;;;;;;;;;20.00;60.90;;;;;;5001815;28;83965;-60
2021/09/01 00:40:22;;;;;;;;;;;19.90;60.80;;;;;;5000734;28;83360;-59
2021/09/01 00:42:47;;;;;;;;;;;20.00;60.90;;;;;;5001260;28;81439;-60
2021/09/01 00:45:13;;;;;;;;;;;19.90;60.90;;;;;;5002047;28;82097;-60
2021/09/01 00:47:38;;;;;;;;;;;19.90;60.90;;;;;;5001276;28;82974;-59
2021/09/01 00:50:05;;;;;;;;;;;19.90;60.90;;;;;;5001009;28;83099;-59
2021/09/01 00:52:31;;;;;;;;;;;19.80;60.90;;;;;;5005800;28;82888;-59
2021/09/01 00:54:57;;;;;;;;;;;19.80;60.90;;;;;;5003496;28;83687;-59
2021/09/01 00:57:23;;;;;;;;;;;19.80;60.80;;;;;;5004589;28;83057;-60
2021/09/01 00:59:48;;;;;;;;;;;19.80;60.80;;;;;;5000812;28;84160;-59
2021/09/01 01:02:14;;;;;;;;;;;19.80;60.90;;;;;;5002529;28;83392;-60
2021/09/01 01:04:40;;;;;;;;;;;19.80;61.00;;;;;;5003114;28;82973;-59
2021/09/01 01:07:06;;;;;;;;;;;19.80;61.00;;;;;;5000600;28;81864;-59
2021/09/01 01:09:34;;;;;;;;;;;19.80;60.90;;;;;;5001317;28;83836;-60
2021/09/01 01:12:04;;;;;;;;;;;19.80;60.80;;;;;;5006569;28;83852;-59
2021/09/01 01:14:40;;;;;;;;;;;19.80;60.70;;;;;;5001890;28;83105;-60
2021/09/01 01:17:14;;;;;;;;;;;19.80;60.90;;;;;;5004546;28;85094;-59
2021/09/01 01:19:43;;;;;;;;;;;19.80;61.00;;;;;;4999421;28;83467;-59
2021/09/01 01:22:12;;;;;;;;;;;19.70;61.00;;;;;;5000904;28;82157;-59
2021/09/01 01:24:43;;;;;;;;;;;19.70;60.80;;;;;;5002138;28;82813;-60
2021/09/01 01:27:16;;;;;;;;;;;19.70;60.80;;;;;;5002304;28;82425;-60
2021/09/01 01:29:42;;;;;;;;;;;19.70;60.90;;;;;;5000250;28;82108;-59
2021/09/01 01:32:07;;;;;;;;;;;19.70;60.70;;;;;;5001955;28;81501;-59
2021/09/01 01:34:33;;;;;;;;;;;19.70;60.80;;;;;;5005510;28;83203;-59
2021/09/01 01:36:58;;;;;;;;;;;19.70;60.80;;;;;;5004336;28;83178;-59
2021/09/01 01:39:24;;;;;;;;;;;19.60;60.70;;;;;;5003369;28;83981;-59
2021/09/01 01:41:49;;;;;;;;;;;19.60;60.80;;;;;;5004748;28;82215;-59
2021/09/01 01:44:15;;;;;;;;;;;19.60;60.70;;;;;;5001295;28;82824;-59
2021/09/01 01:46:40;;;;;;;;;;;19.60;60.80;;;;;;5031645;28;83348;-60
2021/09/01 01:49:06;;;;;;;;;;;19.60;60.70;;;;;;5000854;28;82068;-59
2021/09/01 01:51:31;;;;;;;;;;;19.60;60.80;;;;;;5000471;28;82632;-59
2021/09/01 01:53:57;;;;;;;;;;;19.60;60.70;;;;;;4999569;28;83624;-60
2021/09/01 01:56:22;;;;;;;;;;;19.60;60.80;;;;;;5002164;28;81438;-59
2021/09/01 01:58:48;;;;;;;;;;;19.60;60.70;;;;;;4999220;28;82554;-60
2021/09/01 02:01:13;;;;;;;;;;;19.50;60.70;;;;;;4998939;28;83615;-59
2021/09/01 02:03:39;;;;;;;;;;;19.50;60.60;;;;;;4998647;28;83652;-59
2021/09/01 02:06:04;;;;;;;;;;;19.50;60.70;;;;;;4999913;28;82628;-59
2021/09/01 02:08:30;;;;;;;;;;;19.50;60.60;;;;;;5000613;28;82114;-60
2021/09/01 02:10:55;;;;;;;;;;;19.50;60.70;;;;;;5000233;28;82155;-60
2021/09/01 02:13:21;;;;;;;;;;;19.50;60.80;;;;;;4999308;28;85198;-60
2021/09/01 02:15:46;;;;;;;;;;;19.50;60.70;;;;;;4998803;28;82088;-60
2021/09/01 02:18:12;;;;;;;;;;;19.50;60.90;;;;;;5003059;28;83914;-60
2021/09/01 02:20:37;;;;;;;;;;;19.40;60.70;;;;;;4999665;28;82512;-59
2021/09/01 02:23:03;;;;;;;;;;;19.40;61.30;;;;;;5000140;28;82119;-59
2021/09/01 02:25:29;;;;;;;;;;;19.40;60.70;;;;;;4999708;28;83262;-59
2021/09/01 02:27:55;;;;;;;;;;;19.40;60.70;;;;;;4998291;28;84706;-60
2021/09/01 02:30:22;;;;;;;;;;;19.40;60.80;;;;;;4998953;28;83046;-59
2021/09/01 02:32:48;;;;;;;;;;;19.40;60.80;;;;;;5001298;28;84310;-60
2021/09/01 02:35:13;;;;;;;;;;;19.40;60.70;;;;;;5000859;28;83364;-59
2021/09/01 02:37:39;;;;;;;;;;;19.30;60.70;;;;;;5003686;28;82228;-59
2021/09/01 02:40:04;;;;;;;;;;;19.30;60.80;;;;;;5005573;28;83395;-59
2021/09/01 02:42:30;;;;;;;;;;;19.30;60.70;;;;;;5004195;28;82093;-60
2021/09/01 02:44:57;;;;;;;;;;;19.30;60.70;;;;;;5004457;28;82274;-60
2021/09/01 02:47:23;;;;;;;;;;;19.30;60.80;;;;;;5005368;28;82097;-59
2021/09/01 02:49:48;;;;;;;;;;;19.30;60.80;;;;;;5006688;28;82906;-59
2021/09/01 02:52:14;;;;;;;;;;;19.30;60.70;;;;;;5004019;28;84616;-60
2021/09/01 02:54:40;;;;;;;;;;;19.30;60.70;;;;;;5002159;28;82173;-59
2021/09/01 02:57:05;;;;;;;;;;;19.20;60.70;;;;;;5003379;28;82102;-59
2021/09/01 02:59:31;;;;;;;;;;;19.20;60.70;;;;;;5004169;28;84825;-60
2021/09/01 03:01:56;;;;;;;;;;;19.20;60.70;;;;;;5008512;28;82215;-59
2021/09/01 03:04:22;;;;;;;;;;;19.20;60.80;;;;;;5006412;28;83717;-59
2021/09/01 03:06:47;;;;;;;;;;;19.20;60.80;;;;;;5005876;28;82115;-59
2021/09/01 03:09:13;;;;;;;;;;;19.20;60.70;;;;;;5005634;28;82299;-59
2021/09/01 03:11:38;;;;;;;;;;;19.20;60.80;;;;;;5004126;28;84204;-59
2021/09/01 03:14:04;;;;;;;;;;;19.10;60.80;;;;;;5005081;28;82112;-59
2021/09/01 03:16:29;;;;;;;;;;;19.10;60.80;;;;;;5005672;28;83039;-60
2021/09/01 03:18:55;;;;;;;;;;;19.10;60.80;;;;;;5004170;28;83823;-59
2021/09/01 03:21:20;;;;;;;;;;;19.10;60.80;;;;;;5004648;28;82096;-60
2021/09/01 03:23:46;;;;;;;;;;;19.10;60.70;;;;;;5002759;28;84505;-59
2021/09/01 03:26:12;;;;;;;;;;;19.10;60.70;;;;;;5004019;28;82165;-59
2021/09/01 03:28:37;;;;;;;;;;;19.10;60.80;;;;;;5005396;28;82139;-59
2021/09/01 03:31:03;;;;;;;;;;;19.10;60.80;;;;;;5005746;28;83525;-59
2021/09/01 03:33:28;;;;;;;;;;;19.10;60.70;;;;;;5002981;28;82978;-60
2021/09/01 03:35:54;;;;;;;;;;;19.00;60.80;;;;;;5002192;28;82164;-60
2021/09/01 03:38:19;;;;;;;;;;;19.00;60.80;;;;;;5003166;28;82570;-60
2021/09/01 03:40:45;;;;;;;;;;;19.00;60.80;;;;;;5003747;28;83089;-59
2021/09/01 03:43:10;;;;;;;;;;;19.00;60.80;;;;;;5008109;28;83078;-59
2021/09/01 03:45:36;;;;;;;;;;;18.90;60.80;;;;;;5004011;28;83048;-59
2021/09/01 03:48:02;;;;;;;;;;;18.90;60.80;;;;;;5005820;28;84118;-59
2021/09/01 03:50:28;;;;;;;;;;;18.90;60.80;;;;;;5003460;28;83559;-59
2021/09/01 03:52:53;;;;;;;;;;;18.90;60.80;;;;;;5000984;28;82138;-59
2021/09/01 03:55:19;;;;;;;;;;;18.90;60.90;;;;;;5002499;28;82744;-59
2021/09/01 03:57:44;;;;;;;;;;;18.90;60.90;;;;;;5004191;28;82193;-59
2021/09/01 04:00:11;;;;;;;;;;;18.90;60.80;;;;;;5004490;28;82133;-59
2021/09/01 04:02:36;;;;;;;;;;;18.90;60.80;;;;;;5002513;28;84027;-59
2021/09/01 04:05:02;;;;;;;;;;;18.90;60.80;;;;;;5003558;28;84163;-59
2021/09/01 04:07:27;;;;;;;;;;;18.90;60.80;;;;;;5001878;28;83478;-60
2021/09/01 04:09:53;;;;;;;;;;;18.90;60.80;;;;;;5001234;28;83172;-59
2021/09/01 04:12:18;;;;;;;;;;;18.80;60.90;;;;;;5000953;28;82082;-59
2021/09/01 04:14:44;;;;;;;;;;;18.80;60.80;;;;;;5003368;28;82946;-59
2021/09/01 04:17:09;;;;;;;;;;;18.80;60.90;;;;;;5005461;28;83382;-59
2021/09/01 04:19:36;;;;;;;;;;;18.80;60.90;;;;;;5005581;28;82103;-59
2021/09/01 04:22:02;;;;;;;;;;;18.80;61.00;;;;;;5005904;28;81556;-59
2021/09/01 04:24:28;;;;;;;;;;;18.70;61.00;;;;;;5004774;28;83499;-59
2021/09/01 04:26:53;;;;;;;;;;;18.80;61.00;;;;;;5006323;28;83445;-59
2021/09/01 04:29:19;;;;;;;;;;;18.80;61.00;;;;;;4999847;28;84040;-59
2021/09/01 04:31:45;;;;;;;;;;;18.80;61.00;;;;;;5001695;28;82219;-59
2021/09/01 04:34:10;;;;;;;;;;;18.70;60.90;;;;;;5003069;28;82143;-59
2021/09/01 04:36:36;;;;;;;;;;;18.70;60.90;;;;;;5003880;28;83836;-59
2021/09/01 04:39:01;;;;;;;;;;;18.70;60.90;;;;;;5004910;28;82271;-60
2021/09/01 04:41:27;;;;;;;;;;;18.70;60.90;;;;;;5001741;28;83854;-60
2021/09/01 04:43:52;;;;;;;;;;;18.70;60.90;;;;;;4999921;28;84460;-59
2021/09/01 04:46:18;;;;;;;;;;;18.70;60.90;;;;;;5001087;28;81319;-59
2021/09/01 04:48:44;;;;;;;;;;;18.70;60.90;;;;;;5004343;28;82180;-59
2021/09/01 04:51:09;;;;;;;;;;;18.70;60.90;;;;;;5002961;28;82088;-60
2021/09/01 04:53:35;;;;;;;;;;;18.70;60.90;;;;;;5003325;28;83590;-60
2021/09/01 04:56:00;;;;;;;;;;;18.60;60.90;;;;;;5004075;28;83329;-59
2021/09/01 04:58:26;;;;;;;;;;;18.70;60.90;;;;;;5000764;28;82964;-59
2021/09/01 05:00:51;;;;;;;;;;;18.70;61.00;;;;;;5000949;28;82716;-59
2021/09/01 05:03:17;;;;;;;;;;;18.60;61.00;;;;;;5001879;28;82733;-59
2021/09/01 05:05:42;;;;;;;;;;;18.60;60.90;;;;;;5002219;28;82108;-59
2021/09/01 05:08:08;;;;;;;;;;;18.60;61.00;;;;;;5004317;28;82184;-59
2021/09/01 05:10:34;;;;;;;;;;;18.60;61.00;;;;;;5006844;28;82255;-59
2021/09/01 05:12:59;;;;;;;;;;;18.60;61.00;;;;;;5002808;28;82644;-59
2021/09/01 05:15:25;;;;;;;;;;;18.60;60.90;;;;;;5001695;28;84815;-59
2021/09/01 05:17:50;;;;;;;;;;;18.60;60.90;;;;;;5001715;28;83047;-59
2021/09/01 05:20:17;;;;;;;;;;;18.60;60.90;;;;;;5001729;28;84916;-59
2021/09/01 05:22:44;;;;;;;;;;;18.60;60.80;;;;;;4999834;28;83986;-59
2021/09/01 05:25:12;;;;;;;;;;;18.60;61.10;;;;;;5002566;28;82114;-59
2021/09/01 05:27:39;;;;;;;;;;;18.60;60.90;;;;;;5000699;28;82126;-60
2021/09/01 05:30:06;;;;;;;;;;;18.60;60.90;;;;;;5002403;28;82701;-59
2021/09/01 05:32:31;;;;;;;;;;;18.60;60.90;;;;;;4999939;28;84971;-59
2021/09/01 05:35:00;;;;;;;;;;;18.60;61.00;;;;;;5001142;28;83313;-59
2021/09/01 05:37:26;;;;;;;;;;;18.60;60.90;;;;;;5000611;28;82186;-59
2021/09/01 05:39:52;;;;;;;;;;;18.60;60.90;;;;;;5000438;28;84103;-59
2021/09/01 05:42:19;;;;;;;;;;;18.50;60.90;;;;;;4999695;28;84070;-59
2021/09/01 05:44:45;;;;;;;;;;;18.60;61.00;;;;;;4999500;28;83113;-59
2021/09/01 05:47:11;;;;;;;;;;;18.60;61.10;;;;;;5001933;28;83505;-59
2021/09/01 05:49:38;;;;;;;;;;;18.60;61.00;;;;;;5002094;28;83051;-59
2021/09/01 05:52:05;;;;;;;;;;;18.60;61.10;;;;;;5005140;28;82990;-59
2021/09/01 05:54:31;;;;;;;;;;;18.60;61.10;;;;;;5003513;28;84384;-59
2021/09/01 05:57:16;;;;;;;;;;;18.60;60.90;;;;;;5002276;28;82313;-59
2021/09/01 05:59:43;;;;;;;;;;;18.60;61.00;;;;;;5001093;28;83128;-59
2021/09/01 06:02:10;;;;;;;;;;;18.60;61.00;;;;;;4999808;28;84108;-59
2021/09/01 06:04:37;;;;;;;;;;;18.60;61.20;;;;;;5002065;28;83582;-59
2021/09/01 06:07:06;;;;;;;;;;;18.60;61.00;;;;;;5003181;28;83871;-59
2021/09/01 06:09:33;;;;;;;;;;;18.60;61.20;;;;;;4999934;28;82989;-59
2021/09/01 06:12:01;;;;;;;;;;;18.60;61.10;;;;;;4999715;28;82155;-59
2021/09/01 06:14:26;;;;;;;;;;;18.70;61.20;;;;;;5005469;28;82897;-59
2021/09/01 06:16:52;;;;;;;;;;;18.60;61.20;;;;;;5001064;28;82779;-59
2021/09/01 06:19:17;;;;;;;;;;;18.60;61.30;;;;;;5002836;28;82103;-59
2021/09/01 06:21:43;;;;;;;;;;;18.70;61.30;;;;;;5000069;28;88017;-59
2021/09/01 06:24:08;;;;;;;;;;;18.60;61.30;;;;;;5000760;28;87621;-60
2021/09/01 06:26:34;;;;;;;;;;;18.70;61.40;;;;;;4999468;28;87139;-59
2021/09/01 06:28:59;;;;;;;;;;;18.60;61.50;;;;;;5000469;28;88214;-59
2021/09/01 06:31:26;;;;;;;;;;;18.60;61.50;;;;;;5001433;28;88061;-59
2021/09/01 06:33:52;;;;;;;;;;;18.60;61.60;;;;;;5001286;28;89929;-59
2021/09/01 06:36:17;;;;;;;;;;;18.60;62.30;;;;;;5004126;28;88466;-59
2021/09/01 06:38:43;;;;;;;;;;;18.60;61.60;;;;;;5002602;28;87107;-60
2021/09/01 06:41:08;;;;;;;;;;;18.50;61.80;;;;;;5003255;28;88960;-59
2021/09/01 06:43:34;;;;;;;;;;;18.50;61.70;;;;;;5000447;28;88646;-59
2021/09/01 06:45:59;;;;;;;;;;;18.60;61.80;;;;;;4999399;28;89018;-59
2021/09/01 06:48:26;;;;;;;;;;;18.60;61.70;;;;;;5000757;28;87287;-60
2021/09/01 06:50:51;;;;;;;;;;;18.50;61.90;;;;;;5000889;28;87138;-59
2021/09/01 06:53:17;;;;;;;;;;;18.50;61.80;;;;;;5002251;28;88268;-59
2021/09/01 06:55:42;;;;;;;;;;;18.50;61.90;;;;;;5002380;28;88526;-59
2021/09/01 06:58:15;;;;;;;;;;;18.60;61.80;;;;;;5003678;28;87224;-59
2021/09/01 07:00:41;;;;;;;;;;;18.50;61.90;;;;;;5002180;28;89241;-59
2021/09/01 07:03:06;;;;;;;;;;;18.50;62.00;;;;;;5002331;28;88577;-59
2021/09/01 07:05:32;;;;;;;;;;;18.40;62.00;;;;;;4999258;28;88022;-59
2021/09/01 07:07:57;;;;;;;;;;;18.50;62.00;;;;;;4999065;28;87712;-59
2021/09/01 07:10:23;;;;;;;;;;;18.50;61.90;;;;;;4999042;28;87124;-59
2021/09/01 07:12:48;;;;;;;;;;;18.50;62.00;;;;;;4998826;28;88870;-59
2021/09/01 07:15:14;;;;;;;;;;;18.50;61.90;;;;;;4999254;28;87986;-59
2021/09/01 07:17:41;;;;;;;;;;;18.50;61.70;;;;;;4998329;28;87097;-59
2021/09/01 07:20:07;;;;;;;;;;;18.60;61.80;;;;;;5004133;28;88501;-59
2021/09/01 07:22:33;;;;;;;;;;;18.50;61.80;;;;;;5000905;28;87172;-59
2021/09/01 07:24:58;;;;;;;;;;;18.50;61.70;;;;;;5000125;28;87666;-59
2021/09/01 07:27:24;;;;;;;;;;;18.50;61.70;;;;;;5000711;28;87844;-59
2021/09/01 07:29:49;;;;;;;;;;;18.50;61.80;;;;;;5000897;28;87191;-59
2021/09/01 07:32:15;;;;;;;;;;;18.60;61.80;;;;;;5001475;28;87195;-59
2021/09/01 07:34:40;;;;;;;;;;;18.50;61.90;;;;;;5001487;28;87961;-60
2021/09/01 07:37:06;;;;;;;;;;;18.50;61.80;;;;;;5001932;28;86489;-59
2021/09/01 07:39:31;;;;;;;;;;;18.50;61.80;;;;;;5003400;28;87211;-59
2021/09/01 07:41:57;;;;;;;;;;;18.50;61.90;;;;;;5000043;28;87158;-59
2021/09/01 07:44:22;;;;;;;;;;;18.50;61.90;;;;;;4999615;28;88137;-59
2021/09/01 07:46:48;;;;;;;;;;;18.50;62.50;;;;;;5000043;28;88271;-59
2021/09/01 07:49:13;;;;;;;;;;;18.60;62.00;;;;;;5001640;28;87185;-59
2021/09/01 07:51:39;;;;;;;;;;;18.50;61.80;;;;;;5001000;28;89049;-59
2021/09/01 07:54:04;;;;;;;;;;;18.60;61.90;;;;;;5000265;28;88562;-59
2021/09/01 07:56:30;;;;;;;;;;;18.60;61.90;;;;;;5000094;28;87113;-59
2021/09/01 07:58:55;;;;;;;;;;;18.60;61.90;;;;;;5001113;28;88477;-59
2021/09/01 08:01:21;;;;;;;;;;;18.50;61.80;;;;;;5005615;28;87514;-59
2021/09/01 08:03:46;;;;;;;;;;;18.60;61.90;;;;;;4999758;28;88158;-59
2021/09/01 08:06:12;;;;;;;;;;;18.60;61.90;;;;;;4997573;28;88063;-60
2021/09/01 08:08:37;;;;;;;;;;;18.60;62.00;;;;;;4997424;28;88097;-59
2021/09/01 08:11:03;;;;;;;;;;;18.50;61.90;;;;;;4999335;28;88724;-59
2021/09/01 08:13:29;;;;;;;;;;;18.60;62.00;;;;;;5000227;28;88127;-59
2021/09/01 08:15:54;;;;;;;;;;;18.50;62.00;;;;;;5001463;28;87131;-60
2021/09/01 08:18:20;;;;;;;;;;;18.50;62.00;;;;;;5000930;28;87306;-59
2021/09/01 08:20:45;;;;;;;;;;;18.60;61.80;;;;;;5000502;28;89735;-59
2021/09/01 08:23:11;;;;;;;;;;;18.60;61.90;;;;;;5005002;28;87156;-59
2021/09/01 08:25:37;;;;;;;;;;;18.50;62.00;;;;;;4999474;28;87881;-59
2021/09/01 08:28:02;;;;;;;;;;;18.60;61.90;;;;;;4997519;28;87141;-59
2021/09/01 08:30:28;;;;;;;;;;;18.60;62.10;;;;;;4998656;28;87660;-59
2021/09/01 08:32:53;;;;;;;;;;;18.60;62.10;;;;;;4998807;28;88730;-59
2021/09/01 08:35:19;;;;;;;;;;;18.60;61.90;;;;;;5000738;28;87127;-59
2021/09/01 08:37:47;;;;;;;;;;;18.70;61.90;;;;;;5001968;28;87670;-59
2021/09/01 08:40:13;;;;;;;;;;;18.60;61.80;;;;;;4998971;28;87691;-59
2021/09/01 08:42:40;;;;;;;;;;;18.60;61.80;;;;;;5000201;28;87145;-59
2021/09/01 08:45:06;;;;;;;;;;;18.60;62.20;;;;;;5001399;28;88323;-60
2021/09/01 08:47:32;;;;;;;;;;;18.60;61.90;;;;;;4997937;28;87193;-60
2021/09/01 08:52:42;;;;;;;;;;;18.60;61.90;;;;;;4998542;28;87283;-60
2021/09/01 08:55:09;;;;;;;;;;;18.60;61.90;;;;;;4998529;28;87172;-60
2021/09/01 08:57:34;;;;;;;;;;;18.60;61.90;;;;;;4997322;28;88630;-59
2021/09/01 09:00:00;;;;;;;;;;;18.60;61.80;;;;;;4998791;28;88233;-59
2021/09/01 09:02:27;;;;;;;;;;;18.70;61.80;;;;;;5000228;28;87254;-59
2021/09/01 09:04:52;;;;;;;;;;;18.60;61.70;;;;;;4999241;28;88842;-59
2021/09/01 09:07:18;;;;;;;;;;;18.60;61.80;;;;;;5003173;28;87526;-59
2021/09/01 09:09:43;;;;;;;;;;;18.70;61.80;;;;;;5000514;28;88887;-60
2021/09/01 09:12:09;;;;;;;;;;;18.70;61.80;;;;;;4997022;28;88187;-59
2021/09/01 09:14:35;;;;;;;;;;;18.70;61.80;;;;;;4997704;28;86410;-60
2021/09/01 09:17:01;;;;;;;;;;;18.70;61.90;;;;;;4998378;28;88173;-59
2021/09/01 09:19:46;;;;;;;;;;;18.70;61.90;;;;;;4997541;28;89173;-59
2021/09/01 09:22:12;;;;;;;;;;;18.70;61.80;;;;;;5000421;28;88106;-59
2021/09/01 09:24:38;;;;;;;;;;;18.80;61.90;;;;;;5000412;28;90293;-58
2021/09/01 09:27:04;;;;;;;;;;;18.70;61.70;;;;;;4999851;28;89299;-59
2021/09/01 09:29:30;;;;;;;;;;;18.70;61.70;;;;;;5002556;28;88463;-59
2021/09/01 09:32:03;;;;;;;;;;;18.70;61.80;;;;;;4997687;28;89226;-59
2021/09/01 09:34:41;;;;;;;;;;;18.70;61.80;;;;;;5000137;28;87163;-59
2021/09/01 09:37:08;;;;;;;;;;;18.70;61.90;;;;;;4998836;28;89239;-59
2021/09/01 09:39:45;;;;;;;;;;;18.70;61.80;;;;;;4998005;28;88694;-60
2021/09/01 09:42:11;;;;;;;;;;;18.70;61.80;;;;;;4997492;28;87112;-59
2021/09/01 09:44:36;;;;;;;;;;;18.70;61.80;;;;;;4997486;28;87575;-59
2021/09/01 09:47:02;;;;;;;;;;;18.80;62.40;;;;;;4995464;28;88787;-59
2021/09/01 09:49:28;;;;;;;;;;;18.80;61.80;;;;;;4999136;28;87197;-59
2021/09/01 09:51:54;;;;;;;;;;;18.80;61.60;;;;;;4995550;28;87976;-60
2021/09/01 09:54:21;;;;;;;;;;;18.80;61.60;;;;;;4997014;28;87190;-60
2021/09/01 09:56:47;;;;;;;;;;;18.80;61.60;;;;;;4997109;28;87328;-59
2021/09/01 09:59:14;;;;;;;;;;;18.80;61.70;;;;;;4996985;28;89603;-60
2021/09/01 10:01:39;;;;;;;;;;;18.80;61.60;;;;;;4996916;28;87130;-59
2021/09/01 10:04:05;;;;;;;;;;;18.90;61.60;;;;;;4998648;28;86959;-59
2021/09/01 10:06:31;;;;;;;;;;;18.90;61.40;;;;;;4998823;28;88155;-59
2021/09/01 10:08:57;;;;;;;;;;;18.90;61.50;;;;;;4999450;28;87133;-59
2021/09/01 10:11:23;;;;;;;;;;;18.90;61.50;;;;;;5002660;28;88092;-59
2021/09/01 10:13:49;;;;;;;;;;;18.90;61.50;;;;;;5000339;28;87608;-59
2021/09/01 10:16:21;;;;;;;;;;;18.90;61.60;;;;;;4999992;28;89022;-59
2021/09/01 10:18:47;;;;;;;;;;;18.90;61.50;;;;;;5000205;28;88085;-60
2021/09/01 10:21:14;;;;;;;;;;;19.00;61.40;;;;;;4999903;28;87837;-59
2021/09/01 10:23:44;;;;;;;;;;;19.00;61.40;;;;;;4999665;28;87901;-59
2021/09/01 10:26:24;;;;;;;;;;;19.00;61.40;;;;;;4999224;28;88720;-60
2021/09/01 10:28:50;;;;;;;;;;;19.00;61.40;;;;;;5000931;28;87279;-60
2021/09/01 10:31:15;;;;;;;;;;;19.00;61.30;;;;;;4997243;28;88697;-60
2021/09/01 10:33:46;;;;;;;;;;;19.00;61.30;;;;;;4998656;28;87660;-60
2021/09/01 10:36:21;;;;;;;;;;;19.10;61.40;;;;;;4996515;28;89277;-59
2021/09/01 10:38:46;;;;;;;;;;;19.00;62.00;;;;;;4999125;28;89443;-59
2021/09/01 10:41:12;;;;;;;;;;;19.10;61.30;;;;;;4998750;28;88002;-60
2021/09/01 10:43:37;;;;;;;;;;;19.10;61.20;;;;;;4995157;28;88604;-59
2021/09/01 10:46:03;;;;;;;;;;;19.10;61.30;;;;;;4996169;28;88169;-59
2021/09/01 10:48:29;;;;;;;;;;;19.10;61.20;;;;;;4997112;28;87147;-60
2021/09/01 10:50:55;;;;;;;;;;;19.10;61.30;;;;;;4998198;28;88991;-59
2021/09/01 10:53:23;;;;;;;;;;;19.10;61.20;;;;;;4999152;28;87280;-60
2021/09/01 10:56:04;;;;;;;;;;;19.10;61.20;;;;;;5015131;28;87159;-59
2021/09/01 10:58:29;;;;;;;;;;;19.20;61.20;;;;;;4995809;28;89105;-60
2021/09/01 11:01:19;;;;;;;;;;;19.20;61.20;;;;;;4996438;28;88076;-59
2021/09/01 11:03:52;;;;;;;;;;;19.20;61.90;;;;;;5000598;28;89962;-59
2021/09/01 11:06:25;;;;;;;;;;;19.10;61.20;;;;;;5000998;28;89189;-60
2021/09/01 11:09:07;;;;;;;;;;;19.20;61.20;;;;;;4998567;28;87148;-59
2021/09/01 11:11:35;;;;;;;;;;;19.20;61.20;;;;;;5002120;28;88675;-59
2021/09/01 11:14:01;;;;;;;;;;;19.20;61.10;;;;;;4998526;28;88309;-60
2021/09/01 11:16:26;;;;;;;;;;;19.20;61.10;;;;;;4998882;28;87097;-60
2021/09/01 11:19:02;;;;;;;;;;;19.20;61.10;;;;;;5003026;28;89408;-59
2021/09/01 11:21:29;;;;;;;;;;;19.20;61.10;;;;;;5000738;28;87139;-59
2021/09/01 11:23:55;;;;;;;;;;;19.20;61.10;;;;;;5000756;28;88878;-59
2021/09/01 11:26:26;;;;;;;;;;;19.30;60.90;;;;;;4998696;28;90396;-60
2021/09/01 11:28:51;;;;;;;;;;;19.30;60.80;;;;;;5000345;28;87289;-59
2021/09/01 11:31:18;;;;;;;;;;;19.30;60.90;;;;;;5001649;28;87330;-59
2021/09/01 11:33:43;;;;;;;;;;;19.30;60.90;;;;;;5001152;28;89443;-59
2021/09/01 11:36:09;;;;;;;;;;;19.30;60.80;;;;;;5002322;28;88680;-59
2021/09/01 11:38:43;;;;;;;;;;;19.30;60.80;;;;;;5004152;28;89051;-59
2021/09/01 11:41:08;;;;;;;;;;;19.40;60.80;;;;;;4998629;28;87140;-59
2021/09/01 11:43:34;;;;;;;;;;;19.40;60.70;;;;;;5001703;28;86951;-59
2021/09/01 11:46:00;;;;;;;;;;;19.40;60.70;;;;;;4999431;28;87209;-60
2021/09/01 11:48:25;;;;;;;;;;;19.40;60.70;;;;;;5000780;28;87106;-59
2021/09/01 11:50:51;;;;;;;;;;;19.40;60.80;;;;;;5000746;28;88773;-60
2021/09/01 11:53:17;;;;;;;;;;;19.40;60.80;;;;;;5001405;28;88275;-59
2021/09/01 11:55:43;;;;;;;;;;;19.40;60.80;;;;;;5000230;28;88911;-59
2021/09/01 11:58:18;;;;;;;;;;;19.40;60.80;;;;;;4998673;28;87760;-59
2021/09/01 12:00:45;;;;;;;;;;;19.50;60.70;;;;;;5001063;28;88051;-59
2021/09/01 12:03:11;;;;;;;;;;;19.50;60.60;;;;;;4998738;28;88858;-60
2021/09/01 12:05:37;;;;;;;;;;;19.50;61.20;;;;;;5000020;28;89552;-59
2021/09/01 12:08:03;;;;;;;;;;;19.50;60.40;;;;;;5001534;28;86413;-60
2021/09/01 12:10:32;;;;;;;;;;;19.50;60.50;;;;;;4998614;28;87906;-59
2021/09/01 12:12:58;;;;;;;;;;;19.50;61.10;;;;;;4998927;28;87814;-60
2021/09/01 12:15:24;;;;;;;;;;;19.60;60.50;;;;;;4996274;28;89438;-60
2021/09/01 12:18:00;;;;;;;;;;;19.50;60.40;;;;;;4998695;28;90578;-60
2021/09/01 12:20:25;;;;;;;;;;;19.60;60.30;;;;;;4999470;28;88066;-60
2021/09/01 12:22:51;;;;;;;;;;;19.50;60.30;;;;;;5002908;28;88212;-59
2021/09/01 12:25:20;;;;;;;;;;;19.60;60.40;;;;;;4998775;28;88044;-60
2021/09/01 12:28:06;;;;;;;;;;;19.60;60.40;;;;;;4998728;28;88826;-60
2021/09/01 12:30:33;;;;;;;;;;;19.60;60.40;;;;;;4998875;28;89524;-60
2021/09/01 12:33:00;;;;;;;;;;;19.60;60.30;;;;;;5000658;28;88906;-60
2021/09/01 12:35:31;;;;;;;;;;;19.60;60.10;;;;;;4998478;28;88140;-59
2021/09/01 12:37:57;;;;;;;;;;;19.60;60.00;;;;;;4999944;28;88914;-59
2021/09/01 12:40:27;;;;;;;;;;;19.60;60.00;;;;;;4999337;28;90106;-59
2021/09/01 12:42:57;;;;;;;;;;;19.70;60.00;;;;;;5001014;28;87154;-60
2021/09/01 12:45:23;;;;;;;;;;;19.70;60.10;;;;;;5000730;28;87186;-60
2021/09/01 12:48:01;;;;;;;;;;;19.70;60.00;;;;;;5000507;28;87153;-59
2021/09/01 12:50:37;;;;;;;;;;;19.70;60.00;;;;;;4999427;28;88616;-60
2021/09/01 12:53:04;;;;;;;;;;;19.70;59.90;;;;;;4998565;28;88413;-59
2021/09/01 12:55:30;;;;;;;;;;;19.70;59.80;;;;;;4999570;28;87115;-59
2021/09/01 12:57:56;;;;;;;;;;;19.80;59.80;;;;;;5000876;28;87452;-60
2021/09/01 13:00:21;;;;;;;;;;;19.70;59.70;;;;;;4997417;28;88237;-60
2021/09/01 13:02:48;;;;;;;;;;;19.80;59.70;;;;;;5000544;28;87123;-60
2021/09/01 13:05:17;;;;;;;;;;;19.80;59.40;;;;;;4998426;28;89471;-59
2021/09/01 13:07:43;;;;;;;;;;;19.80;59.50;;;;;;5000055;28;88320;-60
2021/09/01 13:10:09;;;;;;;;;;;19.80;59.60;;;;;;4997498;28;89295;-60
2021/09/01 13:12:35;;;;;;;;;;;19.90;59.70;;;;;;4999654;28;89565;-60
2021/09/01 13:15:01;;;;;;;;;;;19.80;59.40;;;;;;4998785;28;88585;-59
2021/09/01 13:17:45;;;;;;;;;;;19.80;59.50;;;;;;4998958;28;88165;-60
2021/09/01 13:20:11;;;;;;;;;;;19.90;59.40;;;;;;4997467;28;88138;-60
2021/09/01 13:22:37;;;;;;;;;;;19.90;59.40;;;;;;4999784;28;86471;-60
2021/09/01 13:25:03;;;;;;;;;;;19.90;59.40;;;;;;4998854;28;87190;-60
2021/09/01 13:27:29;;;;;;;;;;;19.90;59.50;;;;;;4996049;28;89700;-59
2021/09/01 13:29:56;;;;;;;;;;;19.90;59.40;;;;;;5002485;28;89127;-59
2021/09/01 13:32:22;;;;;;;;;;;19.90;59.30;;;;;;4998911;28;88709;-60
2021/09/01 13:34:48;;;;;;;;;;;20.00;59.50;;;;;;4997402;28;87145;-59
2021/09/01 13:37:13;;;;;;;;;;;20.00;59.40;;;;;;5000114;28;88083;-60
2021/09/01 13:39:39;;;;;;;;;;;20.00;59.30;;;;;;4997021;28;90070;-60
2021/09/01 13:42:04;;;;;;;;;;;20.00;59.20;;;;;;4999578;28;87134;-59
2021/09/01 13:44:31;;;;;;;;;;;20.00;59.00;;;;;;4997510;28;88787;-60
2021/09/01 13:46:58;;;;;;;;;;;20.10;59.10;;;;;;4998457;28;88394;-60
2021/09/01 13:49:23;;;;;;;;;;;20.10;59.00;;;;;;5002811;28;87549;-60
2021/09/01 13:51:49;;;;;;;;;;;20.10;59.20;;;;;;4996975;28;88450;-59
2021/09/01 13:54:14;;;;;;;;;;;20.10;58.90;;;;;;4999089;28;88085;-60
2021/09/01 13:56:40;;;;;;;;;;;20.20;58.80;;;;;;4997784;28;87219;-60
2021/09/01 13:59:06;;;;;;;;;;;20.20;58.90;;;;;;4997994;28;89764;-59
2021/09/01 14:01:31;;;;;;;;;;;20.20;58.80;;;;;;4998059;28;87231;-60
2021/09/01 14:03:57;;;;;;;;;;;20.20;58.70;;;;;;5000420;28;87149;-60
2021/09/01 14:06:23;;;;;;;;;;;20.20;58.60;;;;;;4999333;28;88020;-60
2021/09/01 14:08:49;;;;;;;;;;;20.20;58.60;;;;;;4997076;28;88792;-60
2021/09/01 14:11:14;;;;;;;;;;;20.30;58.60;;;;;;5001789;28;88923;-60
2021/09/01 14:13:40;;;;;;;;;;;20.30;58.50;;;;;;4998171;28;88787;-60
2021/09/01 14:16:06;;;;;;;;;;;20.20;58.30;;;;;;4998025;28;87912;-60